Thunder radar more information blitzortung!


Radar de pluja more information rain snow radar


Visita la nostra xarxa de llocs de meteo:

Template documentation
and downloads

And another site



No particular awareness of the weather is required.    There are no Weather-warnings

Pagina Historial Weather Underground text

Diari Resum Octubre 13, 2017 Unitats:  Mètric    Imperial   Tant
« Previous Dia
SegĂźent Dia »
Diari Setmana Mensual Anual Personalitzada
  Maxima: Minima: Media:
Temperatura: -17.8 °C -9.4 °C -6.8 °C
Punt de rosada: -17.8 °C -10.3 °C -9.1 °C
Humitat: Humidity % 59 % 79 %
Wind Speed: 0 km/h 0 km/h 6.8 km/h
RĂ fegues de vent: 0 km/h - -
Vent:- - SSE
Pression baro: 0 hPa 34669.3 hPa -
Precipitacions: 0 mm    
Historical Graphs
 
 
Dades de taula per Octubre 13, 2017
Temps Temperatura Punt de rosada Pression baro Vent Wind Speed RĂ fegues de vent Humitat Rainfall Rate (Hourly)
-17.8 °C -17.8 °C 0 hPa Calm     Humidity % 0 mm
00:01 -7.3 °C -8.6 °C 34740.4 hPa SW 9 km/h 9 km/h 86 % 0 mm
00:06 -7.3 °C -8.6 °C 34740.4 hPa WNW 3.1 km/h   86 % 0 mm
00:11 -7.3 °C -8.6 °C 34740.4 hPa NW 3.1 km/h 3.1 km/h 86 % 0 mm
00:16 -7.3 °C -8.5 °C 34740.4 hPa WSW 6 km/h 6 km/h 87 % 0 mm
00:21 -7.3 °C -8.6 °C 34740.4 hPa Calm     87 % 0 mm
00:26 -7.3 °C -8.4 °C 34740.4 hPa Calm     88 % 0 mm
00:31 -7.3 °C -8.4 °C 34740.4 hPa Calm     88 % 0 mm
00:36 -7.3 °C -8.4 °C 34740.4 hPa WSW 3.1 km/h   88 % 0 mm
00:41 -7.3 °C -8.4 °C 34740.4 hPa Calm     88 % 0 mm
00:46 -7.3 °C -8.4 °C 34740.4 hPa Calm     88 % 0 mm
00:51 -7.3 °C -8.4 °C 34740.4 hPa Calm     88 % 0 mm
00:56 -7.3 °C -8.4 °C 34740.4 hPa Calm     88 % 0 mm
01:01 -7.3 °C -8.4 °C 34740.4 hPa Calm     88 % 0 mm
01:06 -7.4 °C -8.5 °C 34740.4 hPa WSW 3.1 km/h 3.1 km/h 88 % 0 mm
01:11 -7.4 °C -8.5 °C 34740.4 hPa SW 3.1 km/h   88 % 0 mm
01:16 -7.4 °C -8.6 °C 34740.4 hPa Calm     88 % 0 mm
01:21 -7.4 °C -8.4 °C 34740.4 hPa Calm     89 % 0 mm
01:26 -7.3 °C -8.4 °C 34740.4 hPa SW 3.1 km/h   89 % 0 mm
01:31 -7.3 °C -8.4 °C 34740.4 hPa SW 3.1 km/h   89 % 0 mm
01:36 -7.3 °C -8.3 °C 34740.4 hPa West 6 km/h 6 km/h 89 % 0 mm
01:37 -7.3 °C -8.3 °C 34740.4 hPa West 3.7 km/h 3.7 km/h 89 % 0 mm
01:42 -7.2 °C -8.4 °C 34703.1 hPa WSW 6 km/h 6 km/h 88 % 0 mm
01:47 -7.2 °C -8.4 °C 34703.1 hPa SW 3.7 km/h 3.7 km/h 88 % 0 mm
01:52 -7.3 °C -8.3 °C 34703.1 hPa SW 6 km/h   89 % 0 mm
01:57 -7.3 °C -8.4 °C 34740.4 hPa SW 6 km/h 6 km/h 88 % 0 mm
02:02 -7.3 °C -8.4 °C 34740.4 hPa WSW 9 km/h 9 km/h 88 % 0 mm
02:07 -7.3 °C -8.4 °C 34740.4 hPa SW 6 km/h 6 km/h 88 % 0 mm
02:12 -7.3 °C -8.4 °C 34740.4 hPa West 3.1 km/h 3.1 km/h 88 % 0 mm
02:17 -7.3 °C -8.4 °C 34740.4 hPa WSW 3.1 km/h   88 % 0 mm
02:22 -7.3 °C -8.4 °C 34740.4 hPa SW 7.6 km/h   88 % 0 mm
02:27 -7.2 °C -8.4 °C 34740.4 hPa West 6 km/h 6 km/h 87 % 0 mm
02:32 -7.2 °C -8.4 °C 34740.4 hPa WSW 9 km/h 9 km/h 87 % 0 mm
02:37 -7.2 °C -8.4 °C 34740.4 hPa West 6 km/h 6 km/h 87 % 0 mm
02:42 -7.3 °C -8.4 °C 34740.4 hPa WSW 6 km/h 6.3 km/h 88 % 0 mm
02:47 -7.3 °C -8.4 °C 34740.4 hPa WSW 9 km/h 9 km/h 88 % 0 mm
02:52 -7.4 °C -8.5 °C 34740.4 hPa SW 3.7 km/h 3.7 km/h 88 % 0 mm
02:57 -7.4 °C -8.5 °C 34740.4 hPa WSW 6 km/h 6 km/h 88 % 0 mm
03:02 -7.4 °C -8.6 °C 34740.4 hPa West 6 km/h   88 % 0 mm
03:07 -7.5 °C -8.6 °C 34740.4 hPa Calm     88 % 0 mm
03:12 -7.8 °C -9 °C 34740.4 hPa NNE 5.1 km/h 5.1 km/h 87 % 0 mm
03:17 -7.9 °C -9.1 °C 34740.4 hPa NNE 3.1 km/h 3.1 km/h 87 % 0 mm
03:22 -8 °C -9.2 °C 34740.4 hPa NE 3.1 km/h   87 % 0 mm
03:27 -8.1 °C -9.3 °C 34703.1 hPa Calm     87 % 0 mm
03:32 -8.1 °C -9.2 °C 34703.1 hPa Calm     88 % 0 mm
03:37 -8.1 °C -9.2 °C 34703.1 hPa Calm     88 % 0 mm
03:42 -8.2 °C -9.3 °C 34740.4 hPa Calm     88 % 0 mm
03:47 -8.3 °C -9.4 °C 34740.4 hPa Calm     88 % 0 mm
03:52 -8.4 °C -9.5 °C 34740.4 hPa SW 6 km/h 6 km/h 88 % 0 mm
03:57 -8.4 °C -9.6 °C 34740.4 hPa WSW 6 km/h 6 km/h 88 % 0 mm
04:02 -8.5 °C -9.6 °C 34740.4 hPa SW 3.1 km/h 3.1 km/h 88 % 0 mm
04:03 -8.5 °C -9.6 °C 34740.4 hPa SW 3.1 km/h 3.1 km/h 88 % 0 mm
04:08 -8.6 °C -9.7 °C 34740.4 hPa Calm     88 % 0 mm
04:13 -8.6 °C -9.6 °C 34740.4 hPa WSW 5.6 km/h 5.6 km/h 89 % 0 mm
04:18 -8.6 °C -9.6 °C 34740.4 hPa Calm     89 % 0 mm
04:23 -8.6 °C -9.6 °C 34740.4 hPa WSW 6 km/h 6 km/h 89 % 0 mm
04:28 -8.7 °C -9.7 °C 34740.4 hPa Calm     89 % 0 mm
04:33 -8.7 °C -9.7 °C 34740.4 hPa SW 6 km/h 6 km/h 89 % 0 mm
04:38 -8.8 °C -9.8 °C 34740.4 hPa SW 3.7 km/h   89 % 0 mm
04:43 -8.8 °C -9.8 °C 34740.4 hPa SW 3.7 km/h 3.7 km/h 89 % 0 mm
04:48 -8.8 °C -9.8 °C 34740.4 hPa SW 4.2 km/h 4.2 km/h 89 % 0 mm
04:53 -8.9 °C -9.9 °C 34740.4 hPa Calm     89 % 0 mm
04:58 -8.9 °C -9.9 °C 34740.4 hPa WSW 3.1 km/h 3.1 km/h 89 % 0 mm
05:03 -8.9 °C -9.9 °C 34740.4 hPa WSW 3.7 km/h 3.7 km/h 89 % 0 mm
05:08 -8.9 °C -9.8 °C 34740.4 hPa WSW 3.7 km/h   90 % 0 mm
05:13 -9 °C -9.9 °C 34740.4 hPa WSW 4.2 km/h 4.2 km/h 90 % 0 mm
05:18 -9 °C -10 °C 34740.4 hPa WSW 3.7 km/h 3.7 km/h 89 % 0 mm
05:23 -9.1 °C -10.1 °C 34740.4 hPa WSW 4.2 km/h 4.2 km/h 89 % 0 mm
05:28 -9.1 °C -10.1 °C 34703.1 hPa WSW 3.1 km/h 3.1 km/h 89 % 0 mm
05:33 -9.1 °C -10.1 °C 34703.1 hPa SW 6 km/h 6 km/h 90 % 0 mm
05:38 -9.2 °C -10.1 °C 34703.1 hPa SW 4.2 km/h 4.2 km/h 90 % 0 mm
05:43 -9.2 °C -10.1 °C 34740.4 hPa SW 3.7 km/h 4.2 km/h 90 % 0 mm
05:48 -9.2 °C -10.1 °C 34740.4 hPa SW 6 km/h 6 km/h 90 % 0 mm
05:53 -9.3 °C -10.3 °C 34740.4 hPa SW 6 km/h 6.3 km/h 89 % 0 mm
05:58 -9.3 °C -10.2 °C 34740.4 hPa SW 3.1 km/h 3.1 km/h 90 % 0 mm
06:03 -9.3 °C -10.2 °C 34740.4 hPa SW 6 km/h 6 km/h 90 % 0 mm
06:08 -9.3 °C -10.2 °C 34740.4 hPa Calm     90 % 0 mm
06:13 -9.2 °C -10.1 °C 34740.4 hPa Calm     91 % 0 mm
06:23 -9.2 °C -10.1 °C 34740.4 hPa Calm     91 % 0 mm
06:28 -9.2 °C -10.1 °C 34740.4 hPa Calm     91 % 0 mm
06:33 -9.3 °C -10.1 °C 34740.4 hPa Calm     91 % 0 mm
06:38 -9.3 °C -10.1 °C 34740.4 hPa SW 3.1 km/h 3.7 km/h 91 % 0 mm
06:43 -9.3 °C -10.1 °C 34740.4 hPa SW 3.7 km/h   91 % 0 mm
06:48 -9.3 °C -10.2 °C 34740.4 hPa SW 3.7 km/h 3.7 km/h 91 % 0 mm
06:53 -9.3 °C -10.2 °C 34740.4 hPa SW 6.3 km/h 6.3 km/h 91 % 0 mm
06:58 -9.3 °C -10.2 °C 34740.4 hPa SW 6 km/h 6 km/h 91 % 0 mm
07:03 -9.3 °C -10.2 °C 34740.4 hPa SW 6.3 km/h 6.3 km/h 91 % 0 mm
07:08 -9.3 °C -10.2 °C 34740.4 hPa SW 6 km/h 6 km/h 91 % 0 mm
07:13 -9.4 °C -10.2 °C 34740.4 hPa SW 6 km/h 6 km/h 91 % 0 mm
07:18 -9.4 °C -10.2 °C 34740.4 hPa SSW 9 km/h 9 km/h 91 % 0 mm
07:23 -9.4 °C -10.2 °C 34740.4 hPa SW 6 km/h 6 km/h 91 % 0 mm
07:28 -9.4 °C -10.2 °C 34740.4 hPa SW 6 km/h 6 km/h 91 % 0 mm
07:33 -9.4 °C -10.2 °C 34740.4 hPa SW 6.8 km/h 6.8 km/h 91 % 0 mm
07:38 -9.3 °C -10.2 °C 34740.4 hPa WSW 9 km/h 9 km/h 91 % 0 mm
07:43 -9.4 °C -10.1 °C 34740.4 hPa WSW 3.7 km/h 3.7 km/h 92 % 0 mm
07:48 -9.4 °C -10.1 °C 34740.4 hPa SW 6 km/h 6 km/h 92 % 0 mm
07:53 -9.4 °C -10.1 °C 34740.4 hPa SW 3.1 km/h 3.1 km/h 92 % 0 mm
07:58 -9.4 °C -10.1 °C 34740.4 hPa Calm     92 % 0 mm
08:03 -9.4 °C -10 °C 34740.4 hPa Calm     93 % 0 mm
08:08 -9.4 °C -10.1 °C 34740.4 hPa Calm     93 % 0 mm
08:13 -9.4 °C -10.1 °C 34740.4 hPa Calm     93 % 0 mm
08:18 -9.4 °C -10.1 °C 34740.4 hPa Calm     93 % 0 mm
08:23 -9.4 °C -10.1 °C 34740.4 hPa Calm     93 % 0 mm
08:28 -9.4 °C -10 °C 34740.4 hPa Calm     93 % 0 mm
08:33 -9.3 °C -9.9 °C 34740.4 hPa Calm     93 % 0 mm
08:38 -9.3 °C -9.8 °C 34740.4 hPa Calm     94 % 0 mm
08:43 -9.3 °C -9.8 °C 34740.4 hPa Calm     94 % 0 mm
08:48 -9.4 °C -10 °C 34740.4 hPa WSW 6 km/h 6 km/h 93 % 0 mm
08:53 -9.4 °C -10.1 °C 34740.4 hPa SW 3.7 km/h 3.7 km/h 93 % 0 mm
08:54 -9.4 °C -10.1 °C 34740.4 hPa SW 6 km/h 6 km/h 93 % 0 mm
08:59 -9.4 °C -10.1 °C 34740.4 hPa WSW 6 km/h 6 km/h 93 % 0 mm
09:04 -9.4 °C -10 °C 34740.4 hPa SW 7.6 km/h 7.6 km/h 93 % 0 mm
09:09 -9.3 °C -9.9 °C 34740.4 hPa SW 6 km/h 6 km/h 93 % 0 mm
09:14 -9.3 °C -9.9 °C 34740.4 hPa SW 9 km/h 9 km/h 93 % 0 mm
09:19 -9.2 °C -9.8 °C 34740.4 hPa WSW 8.5 km/h 8.5 km/h 93 % 0 mm
09:24 -9.3 °C -9.9 °C 34740.4 hPa SW 9 km/h 9 km/h 93 % 0 mm
09:29 -9.2 °C -9.8 °C 34740.4 hPa SSW 9 km/h 9 km/h 93 % 0 mm
09:34 -9.2 °C -9.8 °C 34740.4 hPa SW 9 km/h 9 km/h 93 % 0 mm
09:39 -9.1 °C -9.6 °C 34740.4 hPa SW 6.3 km/h 6.3 km/h 94 % 0 mm
09:44 -9 °C -9.6 °C 34740.4 hPa SW 3.1 km/h   94 % 0 mm
09:49 -8.9 °C -9.5 °C 34740.4 hPa SW 6 km/h 6 km/h 94 % 0 mm
09:54 -8.8 °C -9.3 °C 34740.4 hPa SW 6 km/h 6 km/h 94 % 0 mm
09:59 -8.7 °C -9.1 °C 34740.4 hPa SW 4.2 km/h 4.2 km/h 95 % 0 mm
10:04 -8.6 °C -9 °C 34740.4 hPa SW 6 km/h 6 km/h 95 % 0 mm
10:09 -8.6 °C -9.1 °C 34740.4 hPa SW 6.3 km/h 6.3 km/h 94 % 0 mm
10:14 -8.4 °C -8.9 °C 34740.4 hPa SW 6 km/h 6 km/h 94 % 0 mm
10:19 -8.3 °C -9 °C 34740.4 hPa WSW 6.3 km/h 6.3 km/h 93 % 0 mm
10:24 -8.2 °C -8.8 °C 34740.4 hPa SW 6 km/h 6 km/h 93 % 0 mm
10:29 -7.9 °C -8.5 °C 34740.4 hPa NE 8.5 km/h   93 % 0 mm
10:34 -7.8 °C -8.5 °C 34740.4 hPa NE 11.9 km/h 11.9 km/h 92 % 0 mm
10:39 -7.6 °C -8.5 °C 34740.4 hPa NE 9 km/h 9 km/h 90 % 0 mm
10:44 -7.4 °C -8.4 °C 34740.4 hPa ENE 8.5 km/h 8.5 km/h 89 % 0 mm
10:49 -7.3 °C -8.4 °C 34740.4 hPa ENE 11.9 km/h 11.9 km/h 88 % 0 mm
10:54 -7.2 °C -8.5 °C 34740.4 hPa NNE 11.9 km/h 11.9 km/h 86 % 0 mm
11:00 -6.9 °C -8.3 °C 34740.4 hPa NNE 8 km/h 8 km/h 86 % 0 mm
11:05 -6.7 °C -8.3 °C 34740.4 hPa East 6 km/h 6 km/h 84 % 0 mm
11:10 -6.7 °C -8.4 °C 34740.4 hPa ENE 11.9 km/h 11.9 km/h 83 % 0 mm
11:15 -6.7 °C -8.4 °C 34740.4 hPa East 9 km/h 9 km/h 82 % 0 mm
11:20 -6.6 °C -8.4 °C 34740.4 hPa ENE 6 km/h 6 km/h 81 % 0 mm
11:25 -6.2 °C -8.1 °C 34740.4 hPa ENE 7.6 km/h 7.6 km/h 81 % 0 mm
11:30 -6.2 °C -8.2 °C 34774.2 hPa ENE 9 km/h 9 km/h 80 % 0 mm
11:35 -6.1 °C -8.3 °C 34774.2 hPa ENE 6 km/h 6 km/h 78 % 0 mm
11:40 -5.9 °C -8.2 °C 34774.2 hPa NNE 6 km/h 6 km/h 78 % 0 mm
11:46 -5.9 °C -8.2 °C 34740.4 hPa ENE 6 km/h 6 km/h 77 % 0 mm
11:51 -5.8 °C -8.3 °C 34740.4 hPa East 6 km/h 6 km/h 76 % 0 mm
11:56 -5.7 °C -8.2 °C 34740.4 hPa East 6 km/h 6 km/h 76 % 0 mm
12:01 -5.8 °C -8.3 °C 34740.4 hPa ENE 9 km/h 9 km/h 75 % 0 mm
12:06 -5.7 °C -8.4 °C 34740.4 hPa ESE 9.3 km/h 9.3 km/h 74 % 0 mm
12:11 -5.7 °C -8.2 °C 34740.4 hPa East 8 km/h 8 km/h 75 % 0 mm
12:16 -5.5 °C -8.3 °C 34740.4 hPa NNE 9 km/h 9 km/h 73 % 0 mm
12:21 -5.2 °C -7.9 °C 34740.4 hPa NNE 9 km/h 9 km/h 74 % 0 mm
12:26 -5.2 °C -8.1 °C 34740.4 hPa NNE 6 km/h 6 km/h 73 % 0 mm
12:31 -5.3 °C -8.2 °C 34740.4 hPa ENE 6 km/h   72 % 0 mm
12:36 -5 °C -8.1 °C 34740.4 hPa ENE 9.8 km/h 9.8 km/h 71 % 0 mm
12:41 -4.8 °C -8.1 °C 34740.4 hPa ESE 9.3 km/h 9.3 km/h 70 % 0 mm
12:46 -4.9 °C -8.4 °C 34740.4 hPa SSE 11.9 km/h 11.9 km/h 68 % 0 mm
12:51 -5 °C -8.3 °C 34740.4 hPa SE 11.9 km/h 11.9 km/h 69 % 0 mm
12:56 -4.8 °C -8 °C 34740.4 hPa ESE 4.2 km/h   70 % 0 mm
13:01 -4.6 °C -7.9 °C 34740.4 hPa SE 9 km/h 9 km/h 69 % 0 mm
13:06 -4.7 °C -8.3 °C 34740.4 hPa ESE 15 km/h 15 km/h 67 % 0 mm
13:11 -4.4 °C -8.2 °C 34740.4 hPa West 9 km/h 9 km/h 66 % 0 mm
13:16 -4.3 °C -8.2 °C 34740.4 hPa NE 6.8 km/h 6.8 km/h 65 % 0 mm
13:21 -4.3 °C -8.1 °C 34740.4 hPa NNE 9 km/h 9 km/h 66 % 0 mm
13:26 -4.1 °C -8 °C 34740.4 hPa ENE 10.3 km/h 10.3 km/h 65 % 0 mm
13:31 -4.2 °C -8 °C 34740.4 hPa NE 9 km/h 9 km/h 66 % 0 mm
13:36 -3.9 °C -8 °C 34740.4 hPa SSW 15 km/h 15 km/h 64 % 0 mm
13:41 -4.2 °C -8.2 °C 34740.4 hPa ENE 10.3 km/h 10.3 km/h 64 % 0 mm
13:46 -4.2 °C -8.3 °C 34740.4 hPa ESE 11.9 km/h 11.9 km/h 63 % 0 mm
13:51 -3.9 °C -8.1 °C 34740.4 hPa SE 6 km/h 8.5 km/h 63 % 0 mm
13:56 -3.9 °C -8.1 °C 34740.4 hPa East 12.2 km/h 12.2 km/h 63 % 0 mm
14:02 -3.9 °C -8.2 °C 34740.4 hPa SSE 11.9 km/h 11.9 km/h 62 % 0 mm
14:07 -3.8 °C -8 °C 34740.4 hPa North 6 km/h 6 km/h 63 % 0 mm
14:12 -3.6 °C -8.1 °C 34740.4 hPa ESE 9 km/h 9 km/h 61 % 0 mm
14:17 -3.7 °C -8 °C 34703.1 hPa ENE 6 km/h 6 km/h 62 % 0 mm
14:22 -3.7 °C -8.3 °C 34703.1 hPa East 9.3 km/h 9.3 km/h 60 % 0 mm
14:27 -3.8 °C -8.1 °C 34703.1 hPa NE 17.9 km/h 17.9 km/h 62 % 0 mm
14:32 -3.8 °C -8.4 °C 34669.3 hPa ESE 11.9 km/h 11.9 km/h 60 % 0 mm
14:37 -3.8 °C -8.2 °C 34669.3 hPa SSE 11.9 km/h 12.7 km/h 61 % 0 mm
14:42 -3.7 °C -8.2 °C 34669.3 hPa SE 12.2 km/h 12.2 km/h 61 % 0 mm
14:47 -3.7 °C -8.3 °C 34669.3 hPa East 17.9 km/h 17.9 km/h 60 % 0 mm
14:52 -3.9 °C -8.5 °C 34669.3 hPa SSW 15 km/h 15 km/h 60 % 0 mm
14:57 -3.8 °C -8.4 °C 34669.3 hPa South 12.2 km/h 12.2 km/h 60 % 0 mm
15:02 -3.9 °C -8.7 °C 34703.1 hPa ESE 20.9 km/h 20.9 km/h 59 % 0 mm
15:07 -3.8 °C -8.4 °C 34703.1 hPa ENE 15 km/h 15.3 km/h 60 % 0 mm
15:12 -3.8 °C -8.6 °C 34703.1 hPa SE 15 km/h 15 km/h 59 % 0 mm
15:17 -3.9 °C -8.6 °C 34669.3 hPa ENE 23.8 km/h 23.8 km/h 60 % 0 mm
15:22 -3.9 °C -8.5 °C 34669.3 hPa NNE 17.9 km/h 17.9 km/h 60 % 0 mm
15:27 -3.9 °C -8.7 °C 34669.3 hPa ENE 17.9 km/h 17.9 km/h 59 % 0 mm
15:32 -3.9 °C -8.7 °C 34669.3 hPa NNW 15 km/h 15 km/h 59 % 0 mm
15:37 -3.9 °C -8.6 °C 34669.3 hPa SE 23.8 km/h 23.8 km/h 60 % 0 mm
15:42 -3.9 °C -8.6 °C 34669.3 hPa ESE 16.1 km/h 16.1 km/h 60 % 0 mm
15:47 -4 °C -8.6 °C 34669.3 hPa ENE 20.9 km/h 20.9 km/h 60 % 0 mm
15:52 -4.1 °C -8.7 °C 34669.3 hPa ENE 17.9 km/h 17.9 km/h 60 % 0 mm
15:57 -4.1 °C -8.7 °C 34669.3 hPa ESE 20.9 km/h 20.9 km/h 60 % 0 mm
16:02 -4 °C -8.6 °C 34669.3 hPa NE 15 km/h 16.1 km/h 60 % 0 mm
16:07 -4.1 °C -8.7 °C 34669.3 hPa SE 19.2 km/h 19.2 km/h 60 % 0 mm
16:12 -4.1 °C -8.7 °C 34669.3 hPa ENE 15 km/h 15 km/h 60 % 0 mm
16:17 -4 °C -8.6 °C 34669.3 hPa ENE 20.9 km/h 20.9 km/h 60 % 0 mm
16:22 -4 °C -8.6 °C 34669.3 hPa ENE 19.6 km/h 19.6 km/h 60 % 0 mm
16:27 -4.1 °C -8.5 °C 34669.3 hPa ENE 23.8 km/h 23.8 km/h 61 % 0 mm
16:32 -4 °C -8.4 °C 34669.3 hPa ESE 20.9 km/h 20.9 km/h 61 % 0 mm
16:37 -4.1 °C -8.6 °C 34669.3 hPa ESE 26.9 km/h 26.9 km/h 61 % 0 mm
16:42 -4.2 °C -8.6 °C 34669.3 hPa ENE 17.9 km/h 17.9 km/h 61 % 0 mm
16:47 -4.1 °C -8.6 °C 34669.3 hPa SE 23.8 km/h 23.8 km/h 61 % 0 mm
16:52 -4.2 °C -8.7 °C 34669.3 hPa ESE 23.8 km/h 23.8 km/h 61 % 0 mm
16:57 -4.3 °C -8.6 °C 34669.3 hPa ESE 19.2 km/h 19.2 km/h 62 % 0 mm
17:02 -4.3 °C -8.6 °C 34669.3 hPa NE 11.9 km/h 11.9 km/h 62 % 0 mm
17:07 -4.3 °C -8.6 °C 34669.3 hPa SSE 17.9 km/h 17.9 km/h 62 % 0 mm
17:12 -4.3 °C -8.7 °C 34669.3 hPa ESE 20.3 km/h 20.3 km/h 62 % 0 mm
17:17 -4.3 °C -8.4 °C 34669.3 hPa SE 19.6 km/h 19.6 km/h 63 % 0 mm
17:22 -4.3 °C -8.5 °C 34669.3 hPa SE 15.3 km/h 15.3 km/h 63 % 0 mm
17:27 -4.5 °C -8.5 °C 34669.3 hPa NE 15 km/h 15 km/h 64 % 0 mm
17:32 -4.6 °C -8.6 °C 34669.3 hPa ENE 22.5 km/h 22.5 km/h 64 % 0 mm
17:37 -4.7 °C -8.6 °C 34669.3 hPa East 15 km/h 15 km/h 65 % 0 mm
17:42 -4.7 °C -8.6 °C 34669.3 hPa ESE 17.9 km/h 17.9 km/h 65 % 0 mm
17:47 -4.8 °C -8.7 °C 34669.3 hPa ESE 15 km/h 15 km/h 65 % 0 mm
17:52 -4.8 °C -8.7 °C 34669.3 hPa East 15 km/h 15 km/h 65 % 0 mm
17:57 -4.8 °C -8.7 °C 34669.3 hPa East 11.9 km/h 11.9 km/h 65 % 0 mm
18:02 -4.9 °C -8.7 °C 34669.3 hPa East 17.9 km/h 17.9 km/h 65 % 0 mm
18:07 -4.9 °C -8.7 °C 34669.3 hPa ESE 17.9 km/h 17.9 km/h 66 % 0 mm
18:12 -5 °C -8.7 °C 34669.3 hPa ENE 15 km/h 15 km/h 66 % 0 mm
18:17 -5.1 °C -8.8 °C 34669.3 hPa SE 15 km/h 15 km/h 66 % 0 mm
18:22 -5.1 °C -8.8 °C 34669.3 hPa ESE 11.9 km/h 11.9 km/h 66 % 0 mm
18:27 -5.2 °C -8.7 °C 34669.3 hPa ESE 15 km/h 15 km/h 67 % 0 mm
18:32 -5.2 °C -8.8 °C 34669.3 hPa East 15 km/h 15 km/h 67 % 0 mm
18:37 -5.3 °C -8.8 °C 34669.3 hPa East 9 km/h 9 km/h 67 % 0 mm
18:42 -5.3 °C -8.9 °C 34669.3 hPa East 11.9 km/h 11.9 km/h 67 % 0 mm
18:47 -5.3 °C -8.9 °C 34669.3 hPa SE 11.9 km/h 11.9 km/h 67 % 0 mm
18:52 -5.3 °C -8.9 °C 34669.3 hPa ESE 9 km/h 9 km/h 67 % 0 mm
18:57 -5.4 °C -9 °C 34669.3 hPa SSE 3.1 km/h 3.1 km/h 67 % 0 mm
19:02 -5.5 °C -9.1 °C 34669.3 hPa ESE 9 km/h 9 km/h 67 % 0 mm
19:07 -5.6 °C -9.1 °C 34669.3 hPa WSW 6.8 km/h 6.8 km/h 67 % 0 mm
19:12 -5.6 °C -9.1 °C 34703.1 hPa SSE 6.8 km/h 6.8 km/h 67 % 0 mm
19:17 -5.6 °C -9.1 °C 34703.1 hPa SSE 2.3 km/h   68 % 0 mm
19:22 -5.7 °C -9.1 °C 34703.1 hPa SSE 6.3 km/h 6.3 km/h 68 % 0 mm
19:27 -5.8 °C -9.1 °C 34703.1 hPa SW 6 km/h 6 km/h 69 % 0 mm
19:32 -5.8 °C -9.1 °C 34703.1 hPa SW 6 km/h   69 % 0 mm
19:37 -5.9 °C -9.2 °C 34703.1 hPa South 3.1 km/h 3.1 km/h 69 % 0 mm
19:42 -5.9 °C -9.1 °C 34740.4 hPa Calm     70 % 0 mm
19:47 -6 °C -9.2 °C 34740.4 hPa Calm     70 % 0 mm
19:52 -6.1 °C -9.2 °C 34740.4 hPa SW 3.1 km/h   70 % 0 mm
19:57 -6.1 °C -9.1 °C 34740.4 hPa SW 2.3 km/h 3.1 km/h 71 % 0 mm
20:02 -6.2 °C -9.2 °C 34740.4 hPa SW 6 km/h 6 km/h 71 % 0 mm
20:07 -6.2 °C -9.3 °C 34740.4 hPa Calm     71 % 0 mm
20:12 -6.3 °C -9.3 °C 34740.4 hPa WSW 6 km/h 6 km/h 71 % 0 mm
20:17 -6.3 °C -9.2 °C 34740.4 hPa WSW 3.1 km/h   72 % 0 mm
20:22 -6.3 °C -9.2 °C 34740.4 hPa WSW 3.1 km/h   72 % 0 mm
20:27 -6.4 °C -9.3 °C 34740.4 hPa Calm     72 % 0 mm
20:32 -6.4 °C -9.2 °C 34740.4 hPa Calm     73 % 0 mm
20:37 -6.4 °C -9.2 °C 34740.4 hPa Calm     73 % 0 mm
20:42 -6.5 °C -9.3 °C 34740.4 hPa Calm     73 % 0 mm
20:47 -6.6 °C -9.3 °C 34740.4 hPa WNW 3.1 km/h 3.1 km/h 73 % 0 mm
20:52 -6.6 °C -9.2 °C 34740.4 hPa Calm     74 % 0 mm
20:57 -6.6 °C -9.3 °C 34740.4 hPa Calm     74 % 0 mm
20:59 -6.6 °C -9.3 °C 34740.4 hPa Calm     74 % 0 mm
21:04 -6.7 °C -9.2 °C 34740.4 hPa Calm     75 % 0 mm
21:09 -6.7 °C -9.1 °C 34740.4 hPa Calm     76 % 0 mm
21:14 -6.7 °C -9.1 °C 34740.4 hPa Calm     76 % 0 mm
21:19 -6.8 °C -9.2 °C 34740.4 hPa WNW 3.1 km/h 3.1 km/h 76 % 0 mm
21:24 -6.8 °C -9.2 °C 34740.4 hPa NW 3.1 km/h   76 % 0 mm
21:29 -6.8 °C -9.3 °C 34703.1 hPa NW 6 km/h   76 % 0 mm
21:34 -6.8 °C -9.1 °C 34703.1 hPa NW 3.1 km/h   77 % 0 mm
21:39 -6.8 °C -9.3 °C 34703.1 hPa NW 6 km/h 6 km/h 76 % 0 mm
21:44 -6.9 °C -9.2 °C 34740.4 hPa Calm     77 % 0 mm
21:49 -6.9 °C -9.2 °C 34740.4 hPa NW 3.1 km/h   77 % 0 mm
21:54 -6.9 °C -9.2 °C 34740.4 hPa Calm     77 % 0 mm
21:59 -6.9 °C -9.2 °C 34740.4 hPa Calm     77 % 0 mm
22:04 -6.9 °C -9.2 °C 34740.4 hPa Calm     77 % 0 mm
22:09 -6.9 °C -9.2 °C 34740.4 hPa Calm     77 % 0 mm
22:14 -6.9 °C -9.1 °C 34703.1 hPa North 3.1 km/h 3.1 km/h 78 % 0 mm
22:19 -6.9 °C -9.1 °C 34703.1 hPa North 3.1 km/h   78 % 0 mm
22:24 -6.9 °C -9.1 °C 34703.1 hPa Calm     78 % 0 mm
22:29 -6.9 °C -9.1 °C 34740.4 hPa North 3.1 km/h 3.1 km/h 78 % 0 mm
22:34 -6.9 °C -9.1 °C 34740.4 hPa North 3.1 km/h   78 % 0 mm
22:39 -7 °C -9.2 °C 34740.4 hPa Calm     78 % 0 mm
22:44 -7.1 °C -9.2 °C 34740.4 hPa Calm     78 % 0 mm
22:49 -7.1 °C -9.1 °C 34740.4 hPa Calm     79 % 0 mm
22:54 -7.1 °C -9.2 °C 34740.4 hPa Calm     79 % 0 mm
22:59 -7.2 °C -9.2 °C 34740.4 hPa Calm     79 % 0 mm
23:04 -7.2 °C -9.3 °C 34740.4 hPa Calm     79 % 0 mm
23:09 -7.2 °C -9.3 °C 34740.4 hPa NNW 3.1 km/h   79 % 0 mm
23:14 -7.3 °C -9.2 °C 34740.4 hPa NNW 3.1 km/h 3.1 km/h 80 % 0 mm
23:19 -7.3 °C -9.3 °C 34740.4 hPa WNW 4.2 km/h 4.2 km/h 80 % 0 mm
23:24 -7.4 °C -9.4 °C 34740.4 hPa SW 6 km/h 6 km/h 80 % 0 mm
23:29 -7.6 °C -9.5 °C 34740.4 hPa WSW 6 km/h 6 km/h 80 % 0 mm
23:34 -7.6 °C -9.6 °C 34740.4 hPa SW 6 km/h 6 km/h 80 % 0 mm
23:39 -7.7 °C -9.5 °C 34740.4 hPa SW 6 km/h 6 km/h 81 % 0 mm
23:44 -7.7 °C -9.5 °C 34740.4 hPa SW 3.1 km/h 3.1 km/h 81 % 0 mm
23:49 -7.7 °C -9.4 °C 34740.4 hPa Calm     82 % 0 mm
23:54 -7.7 °C -9.4 °C 34740.4 hPa SW 5.1 km/h 5.1 km/h 82 % 0 mm
23:59 -7.7 °C -9.4 °C 34740.4 hPa SW 5.1 km/h 5.1 km/h 82 % 0 mm
Meteo Sesrovires
Elogis d' Weather Underground - 4 mb

Guio original per  Jim McMurry - jmcmurry@mwt.net Adaptat per a la plantilla per  Wim van der Kuil - Leuven-Template.eu

Trobareu la nostra informacio del temps tambe a:

Weather Underground

AWEKAS